Time;durP1;ratioP1;P1;durP2;ratioP2;P2;SDS_P1;SDS_P2;PMS_P1;PMS_P2;Temp;Humidity;BMP_temperature;BMP_pressure;BME280_temperature;BME280_humidity;BME280_pressure;Samples;Min_cycle;Max_cycle;Signal;HPM_P1;HPM_P2
2023/01/13 00:01:26;;;;;;;6.17;5.60;;;;;;;-142.91;100.00;56616.03;4991415;28;20221;-68
2023/01/13 00:03:53;;;;;;;5.90;5.40;;;;;;;-142.91;100.00;56616.03;4983482;28;20233;-70
2023/01/13 00:06:24;;;;;;;5.70;5.30;;;;;;;-142.91;100.00;56616.03;4984626;28;20588;-69
2023/01/13 00:08:52;;;;;;;7.50;5.50;;;;;;;-142.91;100.00;56616.03;4985252;28;20207;-71
2023/01/13 00:11:19;;;;;;;4.97;4.57;;;;;;;-142.91;100.00;56616.03;4987971;28;20215;-69
2023/01/13 00:13:48;;;;;;;5.85;5.30;;;;;;;-142.91;100.00;56616.03;4986782;28;20215;-67
2023/01/13 00:16:16;;;;;;;5.77;5.03;;;;;;;-142.91;100.00;56616.03;4985108;28;20203;-68
2023/01/13 00:18:43;;;;;;;6.50;5.55;;;;;;;-142.91;100.00;56616.03;4986821;28;20211;-70
2023/01/13 00:21:13;;;;;;;5.40;4.97;;;;;;;-142.91;100.00;56616.03;4985596;28;20226;-68
2023/01/13 00:23:40;;;;;;;5.43;5.00;;;;;;;-142.91;100.00;56616.03;4986821;28;20570;-70
2023/01/13 00:26:09;;;;;;;6.38;5.80;;;;;;;-142.91;100.00;56616.03;4983427;28;20228;-68
2023/01/13 00:28:37;;;;;;;6.07;5.57;;;;;;;-142.91;100.00;56616.03;4983036;28;20207;-67
2023/01/13 00:31:10;;;;;;;5.97;5.47;;;;;;;-142.91;100.00;56616.03;4986477;28;20295;-70
2023/01/13 00:33:37;;;;;;;6.65;5.35;;;;;;;-142.91;100.00;56616.03;4990328;28;20696;-68
2023/01/13 00:36:06;;;;;;;6.93;6.25;;;;;;;-142.91;100.00;56616.03;4989648;28;20257;-72
2023/01/13 00:38:35;;;;;;;6.47;5.88;;;;;;;-142.91;100.00;56616.03;4989510;28;20227;-68
2023/01/13 00:41:05;;;;;;;6.68;6.05;;;;;;;-142.91;100.00;56616.03;4986888;28;20724;-69
2023/01/13 00:43:33;;;;;;;6.40;5.60;;;;;;;-142.91;100.00;56616.03;4987610;28;21028;-67
2023/01/13 00:46:00;;;;;;;6.63;6.10;;;;;;;-142.91;100.00;56616.03;4987270;28;20285;-69
2023/01/13 00:48:29;;;;;;;6.90;6.30;;;;;;;-142.91;100.00;56616.03;4991169;28;20318;-70
2023/01/13 00:50:57;;;;;;;7.57;6.30;;;;;;;-142.91;100.00;56616.03;4990595;28;20223;-70
2023/01/13 00:53:24;;;;;;;7.10;6.43;;;;;;;-142.91;100.00;56616.03;4989244;28;20203;-70
2023/01/13 00:55:59;;;;;;;7.30;6.60;;;;;;;-142.91;100.00;56616.03;4989720;28;20208;-68
2023/01/13 00:58:26;;;;;;;7.82;7.13;;;;;;;-142.91;100.00;56616.03;4989642;28;20212;-71
2023/01/13 01:00:53;;;;;;;6.63;5.95;;;;;;;-142.91;100.00;56616.03;4992550;28;20200;-73
2023/01/13 01:03:19;;;;;;;7.32;6.65;;;;;;;-142.91;100.00;56616.03;4992750;28;20288;-68
2023/01/13 01:05:48;;;;;;;7.35;6.70;;;;;;;-142.91;100.00;56616.03;4991875;28;20223;-68
2023/01/13 01:08:14;;;;;;;8.27;7.57;;;;;;;-142.91;100.00;56616.03;4991316;28;20215;-70
2023/01/13 01:10:41;;;;;;;8.20;7.40;;;;;;;-142.91;100.00;56616.03;4991337;28;20211;-70
2023/01/13 01:13:10;;;;;;;8.55;7.30;;;;;;;-142.91;100.00;56616.03;4990959;28;20211;-69
2023/01/13 01:15:40;;;;;;;8.18;7.38;;;;;;;-142.91;100.00;56616.03;4991035;28;20208;-69
2023/01/13 01:18:07;;;;;;;8.43;7.53;;;;;;;-142.91;100.00;56616.03;4989846;28;20214;-68
2023/01/13 01:20:33;;;;;;;8.65;6.80;;;;;;;-142.91;100.00;56616.03;4989770;28;20211;-70
2023/01/13 01:23:01;;;;;;;8.02;7.22;;;;;;;-142.91;100.00;56616.03;4990185;28;20204;-70
2023/01/13 01:25:28;;;;;;;7.22;6.53;;;;;;;-142.91;100.00;56616.03;4989938;28;20278;-67
2023/01/13 01:27:55;;;;;;;8.15;6.25;;;;;;;-142.91;100.00;56616.03;4988843;28;20212;-69
2023/01/13 01:30:22;;;;;;;11.18;6.40;;;;;;;-142.91;100.00;56616.03;4988992;28;20200;-71
2023/01/13 01:32:49;;;;;;;8.15;7.25;;;;;;;-142.91;100.00;56616.03;4992307;28;20681;-68
2023/01/13 01:35:15;;;;;;;7.78;7.00;;;;;;;-142.91;100.00;56616.03;4985146;28;20210;-69
2023/01/13 01:37:42;;;;;;;6.37;5.87;;;;;;;-142.91;100.00;56616.03;4988059;28;20207;-71
2023/01/13 01:40:12;;;;;;;6.63;6.03;;;;;;;-142.91;100.00;56616.03;4990960;28;20735;-72
2023/01/13 01:45:24;;;;;;;7.28;6.47;;;;;;;-142.91;100.00;56616.03;4988058;28;20266;-70
2023/01/13 01:47:55;;;;;;;7.40;6.70;;;;;;;-142.91;100.00;56616.03;4987715;28;20226;-69
2023/01/13 01:50:23;;;;;;;6.97;6.28;;;;;;;-142.91;100.00;56616.03;4989209;28;20208;-69
2023/01/13 01:52:54;;;;;;;7.25;6.63;;;;;;;-142.91;100.00;56616.03;4989631;28;20200;-70
2023/01/13 01:55:27;;;;;;;6.32;5.82;;;;;;;-142.91;100.00;56616.03;4990111;28;20211;-69
2023/01/13 01:57:58;;;;;;;7.00;5.45;;;;;;;-142.91;100.00;56616.03;4987083;28;20207;-71
2023/01/13 02:00:27;;;;;;;6.32;5.65;;;;;;;-142.91;100.00;56616.03;4989796;28;20281;-73
2023/01/13 02:02:55;;;;;;;5.72;5.22;;;;;;;-142.91;100.00;56616.03;4989991;28;20787;-72
2023/01/13 02:05:21;;;;;;;5.50;5.10;;;;;;;-142.91;100.00;56616.03;4990308;28;20214;-71
2023/01/13 02:07:51;;;;;;;5.83;5.33;;;;;;;-142.91;100.00;56616.03;4990886;28;20211;-73
2023/01/13 02:10:20;;;;;;;6.65;6.05;;;;;;;-142.91;100.00;56616.03;4990259;28;20696;-68
2023/01/13 02:12:49;;;;;;;5.70;5.23;;;;;;;-142.91;100.00;56616.03;4989809;28;20211;-70
2023/01/13 02:15:20;;;;;;;5.32;4.93;;;;;;;-142.91;100.00;56616.03;4987193;28;20330;-71
2023/01/13 02:18:05;;;;;;;6.55;5.65;;;;;;;-142.91;100.00;56616.03;4986779;28;20588;-70
2023/01/13 02:21:00;;;;;;;5.22;4.82;;;;;;;-142.91;100.00;56616.03;4989467;28;20203;-70
2023/01/13 02:27:29;;;;;;;6.32;5.78;;;;;;;-142.91;100.00;56616.03;4987844;28;20230;-72
2023/01/13 02:33:10;;;;;;;5.72;5.28;;;;;;;-142.91;100.00;56616.03;4986379;28;20253;-68
2023/01/13 02:35:47;;;;;;;6.40;5.77;;;;;;;-142.91;100.00;56616.03;4985972;28;20845;-70
2023/01/13 02:38:16;;;;;;;6.78;6.18;;;;;;;-142.91;100.00;56616.03;4985904;28;20206;-69
2023/01/13 02:40:54;;;;;;;6.30;5.80;;;;;;;-142.91;100.00;56616.03;4985808;28;20358;-70
2023/01/13 02:46:18;;;;;;;6.22;5.63;;;;;;;-142.91;100.00;56616.03;4985029;28;20770;-70
2023/01/13 02:48:48;;;;;;;6.03;5.47;;;;;;;-142.91;100.00;56616.03;4987378;28;20206;-70
2023/01/13 02:51:19;;;;;;;7.13;6.43;;;;;;;-142.91;100.00;56616.03;4991241;28;20203;-68
2023/01/13 02:53:52;;;;;;;6.07;5.57;;;;;;;-142.91;100.00;56616.03;4990176;28;20207;-67
2023/01/13 02:56:21;;;;;;;7.03;6.43;;;;;;;-142.91;100.00;56616.03;4994674;28;20813;-69
2023/01/13 02:58:49;;;;;;;5.90;5.40;;;;;;;-142.91;100.00;56616.03;4989590;28;20295;-71
2023/01/13 03:01:17;;;;;;;6.40;5.82;;;;;;;-142.91;100.00;56616.03;4993152;28;20208;-69
2023/01/13 03:03:45;;;;;;;8.20;7.35;;;;;;;-142.91;100.00;56616.03;4992237;28;20265;-69
2023/01/13 03:06:30;;;;;;;6.80;6.30;;;;;;;-142.91;100.00;56616.03;4992895;28;20310;-70
2023/01/13 03:09:05;;;;;;;7.13;6.45;;;;;;;-142.91;100.00;56616.03;4991593;28;20234;-68
2023/01/13 03:11:39;;;;;;;6.40;5.90;;;;;;;-142.91;100.00;56616.03;4990260;28;20628;-70
2023/01/13 03:14:21;;;;;;;7.07;6.32;;;;;;;-142.91;100.00;56616.03;4990273;28;20215;-69
2023/01/13 03:17:02;;;;;;;7.32;6.63;;;;;;;-142.91;100.00;56616.03;4991809;28;20214;-70
2023/01/13 03:19:37;;;;;;;9.10;6.53;;;;;;;-142.91;100.00;56616.03;4991634;28;20685;-70
2023/01/13 03:22:17;;;;;;;6.45;5.95;;;;;;;-142.91;100.00;56616.03;4989598;28;20972;-68
2023/01/13 03:24:49;;;;;;;6.50;6.00;;;;;;;-142.91;100.00;56616.03;4991456;28;20685;-70
2023/01/13 03:27:25;;;;;;;6.97;6.25;;;;;;;-142.91;100.00;56616.03;4992313;28;20683;-71
2023/01/13 03:29:58;;;;;;;6.95;6.25;;;;;;;-142.91;100.00;56616.03;4992430;28;20211;-71
2023/01/13 03:32:29;;;;;;;6.15;5.65;;;;;;;-142.91;100.00;56616.03;4994169;28;21456;-70
2023/01/13 03:35:03;;;;;;;8.07;5.28;;;;;;;-142.91;100.00;56616.03;4994129;28;20212;-68
2023/01/13 03:37:34;;;;;;;6.20;5.70;;;;;;;-142.91;100.00;56616.03;4990540;28;20258;-70
2023/01/13 03:40:07;;;;;;;6.63;5.97;;;;;;;-142.91;100.00;56616.03;4990904;28;20235;-68
2023/01/13 03:42:37;;;;;;;6.03;5.53;;;;;;;-142.91;100.00;56616.03;4990058;28;20878;-68
2023/01/13 03:45:09;;;;;;;5.40;5.10;;;;;;;-142.91;100.00;56616.03;4991770;28;20688;-70
2023/01/13 03:47:42;;;;;;;6.25;5.75;;;;;;;-142.91;100.00;56616.03;4992199;28;20770;-70
2023/01/13 03:50:13;;;;;;;6.07;5.57;;;;;;;-142.91;100.00;56616.03;4990166;28;20211;-69
2023/01/13 03:52:45;;;;;;;5.80;5.30;;;;;;;-142.91;100.00;56616.03;4991281;28;20206;-68
2023/01/13 03:55:15;;;;;;;5.80;5.32;;;;;;;-142.91;100.00;56616.03;4992154;28;20203;-70
2023/01/13 03:57:48;;;;;;;5.40;5.00;;;;;;;-142.91;100.00;56616.03;4990664;28;20795;-71
2023/01/13 04:00:17;;;;;;;5.93;5.38;;;;;;;-142.91;100.00;56616.03;4992130;28;20725;-69
2023/01/13 04:02:51;;;;;;;6.55;6.05;;;;;;;-142.91;100.00;56616.03;4991017;28;20211;-70
2023/01/13 04:05:18;;;;;;;5.30;4.90;;;;;;;-142.91;100.00;56616.03;4991992;28;20787;-68
2023/01/13 04:07:52;;;;;;;6.10;5.57;;;;;;;-142.91;100.00;56616.03;4992315;28;20697;-69
2023/01/13 04:10:26;;;;;;;5.97;5.45;;;;;;;-142.91;100.00;56616.03;4992025;28;20595;-69
2023/01/13 04:13:00;;;;;;;5.53;5.07;;;;;;;-142.91;100.00;56616.03;4992272;28;20211;-69
2023/01/13 04:15:29;;;;;;;5.13;4.73;;;;;;;-142.91;100.00;56616.03;4990749;28;20200;-70
2023/01/13 04:18:10;;;;;;;32.78;19.95;;;;;;;-142.91;100.00;56616.03;4990212;28;20203;-69
2023/01/13 04:20:37;;;;;;;24.10;15.07;;;;;;;-142.91;100.00;56616.03;4990588;28;20231;-71
2023/01/13 04:23:04;;;;;;;9.18;8.23;;;;;;;-142.91;100.00;56616.03;4991505;28;20208;-71
2023/01/13 04:25:30;;;;;;;13.98;10.07;;;;;;;-142.91;100.00;56616.03;4990683;28;20219;-69
2023/01/13 04:27:57;;;;;;;11.40;9.13;;;;;;;-142.91;100.00;56616.03;4989271;28;20231;-69
2023/01/13 04:30:24;;;;;;;16.60;11.85;;;;;;;-142.91;100.00;56616.03;4990222;28;20215;-70
2023/01/13 04:32:51;;;;;;;7.90;7.10;;;;;;;-142.91;100.00;56616.03;4989775;28;20207;-69
2023/01/13 04:35:19;;;;;;;7.72;7.03;;;;;;;-142.91;100.00;56616.03;4990628;28;20666;-71
2023/01/13 04:37:45;;;;;;;5.63;5.22;;;;;;;-142.91;100.00;56616.03;4990085;28;20298;-69
2023/01/13 04:40:13;;;;;;;6.10;5.60;;;;;;;-142.91;100.00;56616.03;4989112;28;20736;-67
2023/01/13 04:42:39;;;;;;;6.03;5.47;;;;;;;-142.91;100.00;56616.03;4990101;28;20780;-71
2023/01/13 04:45:08;;;;;;;5.78;5.15;;;;;;;-142.91;100.00;56616.03;4992572;28;20203;-70
2023/01/13 04:47:35;;;;;;;5.35;4.95;;;;;;;-142.91;100.00;56616.03;4988870;28;20253;-69
2023/01/13 04:50:02;;;;;;;5.75;5.35;;;;;;;-142.91;100.00;56616.03;4989724;28;20211;-69
2023/01/13 04:52:30;;;;;;;5.35;4.93;;;;;;;-142.91;100.00;56616.03;4989674;28;20207;-69
2023/01/13 04:54:58;;;;;;;5.40;5.00;;;;;;;-142.91;100.00;56616.03;4989273;28;20212;-70
2023/01/13 04:57:24;;;;;;;6.50;5.95;;;;;;;-142.91;100.00;56616.03;4989534;28;20231;-68
2023/01/13 04:59:51;;;;;;;5.70;5.25;;;;;;;-142.91;100.00;56616.03;4990008;28;20208;-71
2023/01/13 05:02:19;;;;;;;6.57;6.07;;;;;;;-142.91;100.00;56616.03;4989446;28;20200;-70
2023/01/13 05:04:46;;;;;;;6.38;5.78;;;;;;;-142.91;100.00;56616.03;4990102;28;20230;-70
2023/01/13 05:07:13;;;;;;;7.10;6.40;;;;;;;-142.91;100.00;56616.03;4988442;28;20231;-71
2023/01/13 05:09:42;;;;;;;9.40;7.87;;;;;;;-142.91;100.00;56616.03;4989154;28;20212;-69
2023/01/13 05:17:38;;;;;;;6.72;6.13;;;;;;;-142.91;100.00;56616.03;4990783;28;20707;-70
2023/01/13 05:20:06;;;;;;;6.75;6.15;;;;;;;-142.91;100.00;56616.03;4989857;28;20289;-71
2023/01/13 05:25:22;;;;;;;7.07;6.47;;;;;;;-142.91;100.00;56616.03;4988367;28;20659;-70
2023/01/13 05:27:48;;;;;;;7.28;6.68;;;;;;;-142.91;100.00;56616.03;4987051;28;21310;-70
2023/01/13 05:30:16;;;;;;;7.70;7.00;;;;;;;-142.91;100.00;56616.03;4987775;28;20215;-70
2023/01/13 05:32:43;;;;;;;7.68;6.97;;;;;;;-142.91;100.00;56616.03;4989128;28;20715;-69
2023/01/13 05:35:10;;;;;;;7.47;6.88;;;;;;;-142.91;100.00;56616.03;4989927;28;20207;-70
2023/01/13 05:37:36;;;;;;;8.38;7.68;;;;;;;-142.91;100.00;56616.03;4989970;28;20254;-69
2023/01/13 05:45:45;;;;;;;35.63;17.48;;;;;;;-142.91;100.00;56616.03;4988433;28;20203;-68
2023/01/13 05:48:12;;;;;;;8.90;7.78;;;;;;;-142.91;100.00;56616.03;4988547;28;20223;-68
2023/01/13 05:50:39;;;;;;;11.82;9.43;;;;;;;-142.91;100.00;56616.03;4988928;28;20212;-69
2023/01/13 05:53:06;;;;;;;9.20;8.15;;;;;;;-142.91;100.00;56616.03;4988183;28;20199;-69
2023/01/13 05:55:32;;;;;;;12.43;8.65;;;;;;;-142.91;100.00;56616.03;4991823;28;20803;-68
2023/01/13 05:58:01;;;;;;;9.47;8.57;;;;;;;-142.91;100.00;56616.03;4990096;28;20208;-68
2023/01/13 06:00:27;;;;;;;9.07;8.18;;;;;;;-142.91;100.00;56616.03;4988658;28;20211;-70
2023/01/13 06:02:54;;;;;;;11.05;7.72;;;;;;;-142.91;100.00;56616.03;4989667;28;20218;-68
2023/01/13 06:05:21;;;;;;;12.70;9.48;;;;;;;-142.91;100.00;56616.03;4987470;28;20880;-69
2023/01/13 06:07:48;;;;;;;11.88;9.32;;;;;;;-142.91;100.00;56616.03;4988682;28;20223;-70
2023/01/13 06:10:14;;;;;;;9.55;8.40;;;;;;;-142.91;100.00;56616.03;4987741;28;20218;-71
2023/01/13 06:12:41;;;;;;;9.57;8.07;;;;;;;-142.91;100.00;56616.03;4991645;28;20207;-72
2023/01/13 06:15:10;;;;;;;11.43;9.07;;;;;;;-142.91;100.00;56616.03;4991003;28;20210;-70
2023/01/13 06:17:37;;;;;;;11.05;9.40;;;;;;;-142.91;100.00;56616.03;4992582;28;20203;-69
2023/01/13 06:20:07;;;;;;;9.40;8.23;;;;;;;-142.91;100.00;56616.03;4989663;28;20226;-71
2023/01/13 06:22:35;;;;;;;13.30;8.85;;;;;;;-142.91;100.00;56616.03;4990964;28;20208;-72
2023/01/13 06:25:02;;;;;;;10.10;8.77;;;;;;;-142.91;100.00;56616.03;4992197;28;20212;-71
2023/01/13 06:27:29;;;;;;;8.98;8.07;;;;;;;-142.91;100.00;56616.03;4996680;28;21299;-69
2023/01/13 06:29:56;;;;;;;19.58;12.68;;;;;;;-142.91;100.00;56616.03;4994548;28;20206;-70
2023/01/13 06:32:28;;;;;;;15.13;11.57;;;;;;;-142.91;100.00;56616.03;4996775;28;20203;-71
2023/01/13 06:35:00;;;;;;;12.45;9.95;;;;;;;-142.91;100.00;56616.03;4992867;28;20204;-71
2023/01/13 06:37:29;;;;;;;9.60;8.55;;;;;;;-142.91;100.00;56616.03;4996438;28;20211;-72
2023/01/13 06:40:00;;;;;;;12.30;9.77;;;;;;;-142.91;100.00;56616.03;4991935;28;20331;-69
2023/01/13 06:45:13;;;;;;;11.13;8.15;;;;;;;-142.91;100.00;56616.03;4992486;28;20211;-71
2023/01/13 06:47:42;;;;;;;9.63;8.05;;;;;;;-142.91;100.00;56616.03;4994499;28;20228;-70
2023/01/13 06:50:10;;;;;;;10.38;8.15;;;;;;;-142.91;100.00;56616.03;4993922;28;20258;-70
2023/01/13 06:52:37;;;;;;;11.93;8.50;;;;;;;-142.91;100.00;56616.03;4993604;28;20610;-71
2023/01/13 06:55:05;;;;;;;14.02;9.55;;;;;;;-142.91;100.00;56616.03;4992297;28;20212;-69
2023/01/13 06:57:32;;;;;;;10.60;8.95;;;;;;;-142.91;100.00;56616.03;4993210;28;20203;-71
2023/01/13 06:59:59;;;;;;;9.65;8.65;;;;;;;-142.91;100.00;56616.03;4991534;28;20243;-69
2023/01/13 07:02:27;;;;;;;14.32;8.98;;;;;;;-142.91;100.00;56616.03;4994767;28;20204;-71
2023/01/13 07:04:55;;;;;;;17.67;9.45;;;;;;;-142.91;100.00;56616.03;4993720;28;20208;-72
2023/01/13 07:07:21;;;;;;;10.45;8.65;;;;;;;-142.91;100.00;56616.03;4993015;28;20224;-69
2023/01/13 07:09:48;;;;;;;8.35;7.55;;;;;;;-142.91;100.00;56616.03;4993836;28;20582;-68
2023/01/13 07:12:15;;;;;;;9.35;8.35;;;;;;;-142.91;100.00;56616.03;4991009;28;20699;-71
2023/01/13 07:17:26;;;;;;;9.80;8.68;;;;;;;-142.91;100.00;56616.03;4992571;28;20699;-71
2023/01/13 07:19:53;;;;;;;7.47;6.88;;;;;;;-142.91;100.00;56616.03;4993110;28;20207;-70
2023/01/13 07:22:21;;;;;;;8.35;7.38;;;;;;;-142.91;100.00;56616.03;4991692;28;20211;-70
2023/01/13 07:24:48;;;;;;;8.38;7.18;;;;;;;-142.91;100.00;56616.03;4991537;28;20218;-72
2023/01/13 07:27:14;;;;;;;8.35;7.22;;;;;;;-142.91;100.00;56616.03;4993866;28;20873;-69
2023/01/13 07:29:42;;;;;;;12.40;6.82;;;;;;;-142.91;100.00;56616.03;4992813;28;20215;-68
2023/01/13 07:32:09;;;;;;;10.45;7.38;;;;;;;-142.91;100.00;56616.03;4992555;28;20215;-72
2023/01/13 07:34:36;;;;;;;7.18;6.30;;;;;;;-142.91;100.00;56616.03;4993110;28;20212;-70
2023/01/13 07:37:03;;;;;;;7.72;7.00;;;;;;;-142.91;100.00;56616.03;4992070;28;20766;-69
2023/01/13 07:39:31;;;;;;;7.15;6.45;;;;;;;-142.91;100.00;56616.03;4991768;28;20239;-68
2023/01/13 07:44:42;;;;;;;21.55;11.77;;;;;;;-142.91;100.00;56616.03;4992265;28;20238;-69
2023/01/13 07:47:10;;;;;;;16.48;10.10;;;;;;;-142.91;100.00;56616.03;4991183;28;20349;-71
2023/01/13 07:49:37;;;;;;;14.88;9.68;;;;;;;-142.91;100.00;56616.03;4993251;28;20287;-70
2023/01/13 07:52:04;;;;;;;14.65;8.40;;;;;;;-142.91;100.00;56616.03;4990551;28;20219;-70
2023/01/13 07:54:32;;;;;;;17.58;9.35;;;;;;;-142.91;100.00;56616.03;4995365;28;20262;-69
2023/01/13 07:56:58;;;;;;;8.32;7.53;;;;;;;-142.91;100.00;56616.03;4994553;28;20203;-71
2023/01/13 07:59:25;;;;;;;11.13;8.38;;;;;;;-142.91;100.00;56616.03;4991300;28;20203;-68
2023/01/13 08:01:52;;;;;;;10.80;7.10;;;;;;;-142.91;100.00;56616.03;4993030;28;21388;-70
2023/01/13 08:04:19;;;;;;;7.65;6.88;;;;;;;-142.91;100.00;56616.03;4992736;28;20247;-72
2023/01/13 08:06:45;;;;;;;6.47;5.90;;;;;;;-142.91;100.00;56616.03;4993629;28;20207;-71
2023/01/13 08:09:12;;;;;;;6.32;5.72;;;;;;;-142.91;100.00;56616.03;4991461;28;20237;-70
2023/01/13 08:11:40;;;;;;;6.15;5.55;;;;;;;-142.91;100.00;56616.03;4995186;28;21987;-71
2023/01/13 08:14:07;;;;;;;6.57;6.05;;;;;;;-142.91;100.00;56616.03;4992937;28;20590;-68
2023/01/13 08:16:34;;;;;;;8.68;5.82;;;;;;;-142.91;100.00;56616.03;4992839;28;20220;-71
2023/01/13 08:19:01;;;;;;;6.10;5.60;;;;;;;-142.91;100.00;56616.03;4990709;28;20218;-70
2023/01/13 08:21:28;;;;;;;12.63;6.72;;;;;;;-142.91;100.00;56616.03;4991759;28;20220;-69
2023/01/13 08:23:54;;;;;;;6.78;6.18;;;;;;;-142.91;100.00;56616.03;4993410;28;20693;-70
2023/01/13 08:26:21;;;;;;;8.07;6.50;;;;;;;-142.91;100.00;56616.03;4992802;28;20207;-69
2023/01/13 08:28:49;;;;;;;7.43;6.68;;;;;;;-142.91;100.00;56616.03;4991721;28;20235;-68
2023/01/13 08:31:18;;;;;;;7.32;6.72;;;;;;;-142.91;100.00;56616.03;4992940;28;20211;-70
2023/01/13 08:33:45;;;;;;;7.75;6.85;;;;;;;-142.91;100.00;56616.03;4990419;28;20239;-70
2023/01/13 08:36:13;;;;;;;7.32;6.47;;;;;;;-142.91;100.00;56616.03;4996151;28;20212;-70
2023/01/13 08:38:40;;;;;;;6.60;6.00;;;;;;;-142.91;100.00;56616.03;4992397;28;20281;-72
2023/01/13 08:41:11;;;;;;;6.90;6.38;;;;;;;-142.91;100.00;56616.03;4992326;28;20199;-69
2023/01/13 08:43:38;;;;;;;5.82;5.35;;;;;;;-142.91;100.00;56616.03;4993278;28;20238;-70
2023/01/13 08:46:07;;;;;;;12.23;5.95;;;;;;;-142.91;100.00;56616.03;4989916;28;20204;-69
2023/01/13 08:48:34;;;;;;;5.72;5.28;;;;;;;-142.91;100.00;56616.03;4992653;28;20239;-69
2023/01/13 08:51:04;;;;;;;6.90;5.97;;;;;;;-142.91;100.00;56616.03;4992055;28;20720;-69
2023/01/13 08:53:32;;;;;;;6.00;5.53;;;;;;;-142.91;100.00;56616.03;4992558;28;20221;-69
2023/01/13 08:55:58;;;;;;;4.68;4.38;;;;;;;-142.91;100.00;56616.03;4993159;28;20199;-69
2023/01/13 08:58:25;;;;;;;6.28;5.78;;;;;;;-142.91;100.00;56616.03;4992817;28;20207;-69
2023/01/13 09:00:52;;;;;;;5.63;5.22;;;;;;;-142.91;100.00;56616.03;4990669;28;20204;-70
2023/01/13 09:03:20;;;;;;;5.50;5.10;;;;;;;-142.91;100.00;56616.03;4992444;28;20203;-71
2023/01/13 09:05:47;;;;;;;5.63;5.13;;;;;;;-142.91;100.00;56616.03;4993000;28;20218;-71
2023/01/13 09:08:13;;;;;;;5.78;4.50;;;;;;;-142.91;100.00;56616.03;4992535;28;20276;-69
2023/01/13 09:10:40;;;;;;;5.63;5.18;;;;;;;-142.91;100.00;56616.03;4991242;28;20212;-69
2023/01/13 09:13:10;;;;;;;5.32;4.82;;;;;;;-142.91;100.00;56616.03;4993816;28;20224;-70
2023/01/13 09:15:38;;;;;;;5.35;4.90;;;;;;;-142.91;100.00;56616.03;4991743;28;22015;-71
2023/01/13 09:18:04;;;;;;;4.65;4.35;;;;;;;-142.91;100.00;56616.03;4993119;28;20207;-72
2023/01/13 09:20:33;;;;;;;7.10;4.47;;;;;;;-142.91;100.00;56616.03;4991393;28;20601;-71
2023/01/13 09:22:59;;;;;;;4.75;4.35;;;;;;;-142.91;100.00;56616.03;4990148;28;20196;-70
2023/01/13 09:25:26;;;;;;;5.07;4.63;;;;;;;-142.91;100.00;56616.03;4992604;28;20219;-73
2023/01/13 09:27:53;;;;;;;5.03;4.68;;;;;;;-142.91;100.00;56616.03;4992093;28;20231;-71
2023/01/13 09:30:20;;;;;;;10.90;4.68;;;;;;;-142.91;100.00;56616.03;4990727;28;20218;-69
2023/01/13 09:32:46;;;;;;;4.32;4.03;;;;;;;-142.91;100.00;56616.03;4993282;28;20245;-70
2023/01/13 09:35:12;;;;;;;4.57;4.28;;;;;;;-142.91;100.00;56616.03;4994752;28;20213;-72
2023/01/13 09:37:41;;;;;;;4.28;3.88;;;;;;;-142.91;100.00;56616.03;4990320;28;20218;-68
2023/01/13 09:40:12;;;;;;;4.57;4.28;;;;;;;-142.91;100.00;56616.03;4989743;28;20293;-69
2023/01/13 09:45:33;;;;;;;6.68;4.00;;;;;;;-142.91;100.00;56616.03;4990840;28;20910;-71
2023/01/13 09:48:04;;;;;;;4.05;3.72;;;;;;;-142.91;100.00;56616.03;4991396;28;20231;-69
2023/01/13 09:50:48;;;;;;;4.72;4.32;;;;;;;-142.91;100.00;56616.03;4991513;28;20623;-69
2023/01/13 09:53:21;;;;;;;4.22;3.92;;;;;;;-142.91;100.00;56616.03;4989399;28;20211;-70
2023/01/13 09:55:48;;;;;;;5.10;3.58;;;;;;;-142.91;100.00;56616.03;4993061;28;20220;-74
2023/01/13 09:58:17;;;;;;;3.40;3.15;;;;;;;-142.91;100.00;56616.03;4991919;28;20203;-71
2023/01/13 10:00:49;;;;;;;3.58;3.28;;;;;;;-142.91;100.00;56616.03;4990588;28;20200;-74
2023/01/13 10:03:22;;;;;;;5.85;3.70;;;;;;;-142.91;100.00;56616.03;4991883;28;20211;-71
2023/01/13 10:05:56;;;;;;;6.45;3.13;;;;;;;-142.91;100.00;56616.03;4988350;28;20439;-70
2023/01/13 10:08:26;;;;;;;5.47;3.42;;;;;;;-142.91;100.00;56616.03;4987730;28;20326;-71
2023/01/13 10:10:56;;;;;;;4.22;3.92;;;;;;;-142.91;100.00;56616.03;4989146;28;20207;-74
2023/01/13 10:13:23;;;;;;;3.40;3.20;;;;;;;-142.91;100.00;56616.03;4990229;28;20302;-70
2023/01/13 10:15:59;;;;;;;3.42;3.15;;;;;;;-142.91;100.00;56616.03;4990419;28;20231;-70
2023/01/13 10:18:33;;;;;;;3.53;3.25;;;;;;;-142.91;100.00;56616.03;4990747;28;20207;-70
2023/01/13 10:21:11;;;;;;;3.85;3.45;;;;;;;-142.91;100.00;56616.03;4990771;28;20265;-73
2023/01/13 10:24:02;;;;;;;3.88;3.03;;;;;;;-142.91;100.00;56616.03;4989571;28;20226;-69
2023/01/13 10:26:44;;;;;;;5.32;3.78;;;;;;;-142.91;100.00;56616.03;4983914;28;20684;-68
2023/01/13 10:29:20;;;;;;;4.13;3.83;;;;;;;-142.91;100.00;56616.03;4990163;28;20658;-70
2023/01/13 10:31:47;;;;;;;4.18;3.03;;;;;;;-142.91;100.00;56616.03;4985790;28;20295;-68
2023/01/13 10:34:15;;;;;;;3.22;2.70;;;;;;;-142.91;100.00;56616.03;4987246;28;20204;-68
2023/01/13 10:36:57;;;;;;;3.25;3.05;;;;;;;-142.91;100.00;56616.03;4983947;28;20485;-68
2023/01/13 10:39:26;;;;;;;4.05;2.90;;;;;;;-142.91;100.00;56616.03;4983171;28;20370;-68
2023/01/13 10:42:03;;;;;;;3.72;3.42;;;;;;;-142.91;100.00;56616.03;4985354;28;20214;-68
2023/01/13 10:44:30;;;;;;;3.20;2.90;;;;;;;-142.91;100.00;56616.03;4983352;28;20204;-67
2023/01/13 10:46:59;;;;;;;3.38;3.08;;;;;;;-142.91;100.00;56616.03;4985232;28;20277;-71
2023/01/13 10:49:29;;;;;;;3.28;3.08;;;;;;;-142.91;100.00;56616.03;4985331;28;20727;-70
2023/01/13 10:51:56;;;;;;;4.00;3.20;;;;;;;-142.91;100.00;56616.03;4985649;28;20200;-66
2023/01/13 10:54:26;;;;;;;4.15;3.85;;;;;;;-142.91;100.00;56616.03;4983740;28;20208;-69
2023/01/13 10:57:14;;;;;;;4.78;4.38;;;;;;;-142.91;100.00;56616.03;4984329;28;20208;-70
2023/01/13 10:59:41;;;;;;;4.07;3.67;;;;;;;-142.91;100.00;56616.03;4983888;28;20291;-69
2023/01/13 11:02:22;;;;;;;5.32;4.15;;;;;;;-142.91;100.00;56616.03;4985129;28;20215;-70
2023/01/13 11:05:01;;;;;;;5.25;3.88;;;;;;;-142.91;100.00;56616.03;4986860;28;20219;-70
2023/01/13 11:07:31;;;;;;;4.00;3.67;;;;;;;-142.91;100.00;56616.03;4987546;28;20292;-68
2023/01/13 11:10:18;;;;;;;3.75;3.50;;;;;;;-142.91;100.00;56616.03;4983607;28;20231;-67
2023/01/13 11:12:53;;;;;;;4.05;3.08;;;;;;;-142.91;100.00;56616.03;4990913;28;20216;-68
2023/01/13 11:15:23;;;;;;;4.15;3.75;;;;;;;-142.91;100.00;56616.03;4990344;28;20732;-68
2023/01/13 11:17:59;;;;;;;4.72;4.32;;;;;;;-142.91;100.00;56616.03;4989405;28;20610;-70
2023/01/13 11:20:32;;;;;;;4.00;3.70;;;;;;;-142.91;100.00;56616.03;4988760;28;20207;-68
2023/01/13 11:23:03;;;;;;;4.70;4.32;;;;;;;-142.91;100.00;56616.03;4991155;28;20211;-67
2023/01/13 11:25:40;;;;;;;4.30;3.90;;;;;;;-142.91;100.00;56616.03;4990791;28;20203;-67
2023/01/13 11:28:22;;;;;;;5.35;4.40;;;;;;;-142.91;100.00;56616.03;4989243;28;20604;-68
2023/01/13 11:30:55;;;;;;;5.40;4.80;;;;;;;-142.91;100.00;56616.03;4988558;28;20196;-68
2023/01/13 11:33:32;;;;;;;10.00;5.57;;;;;;;-142.91;100.00;56616.03;4989982;28;20208;-69
2023/01/13 11:36:08;;;;;;;5.90;4.40;;;;;;;-142.91;100.00;56616.03;4989263;28;20211;-68
2023/01/13 11:38:44;;;;;;;6.35;5.40;;;;;;;-142.91;100.00;56616.03;4989297;28;20227;-67
2023/01/13 11:41:23;;;;;;;8.45;5.85;;;;;;;-142.91;100.00;56616.03;4988403;28;20219;-68
2023/01/13 11:43:55;;;;;;;5.65;4.35;;;;;;;-142.91;100.00;56616.03;4989365;28;21057;-69
2023/01/13 11:46:25;;;;;;;4.75;4.25;;;;;;;-142.91;100.00;56616.03;4989025;28;20214;-69
2023/01/13 11:48:52;;;;;;;4.32;3.92;;;;;;;-142.91;100.00;56616.03;4990298;28;20226;-68
2023/01/13 11:51:29;;;;;;;8.50;3.85;;;;;;;-142.91;100.00;56616.03;4988313;28;20335;-68
2023/01/13 11:54:12;;;;;;;5.00;3.78;;;;;;;-142.91;100.00;56616.03;4990716;28;20317;-67
2023/01/13 11:57:00;;;;;;;3.58;3.28;;;;;;;-142.91;100.00;56616.03;4989067;28;20211;-68